Frostrup, Denmark
Current Conditions -  °F | °C
As of 12:50 AM on Monday 24 Nov 2014 (Local Time) from EKYT Reporting Station
Moderate Rain Moderate Rain  
Wind Chill: 43°   Ceiling: 1500
Heat Index: 48°   Visibility: 1.2mi
Dew Point: 46°   Wind: 13mph
Humidity: 93%   Direction: 160°SSE
Pressure: 29.83"   Gusts: NA
Location:  57.08°N, 8.98°E
Report Text: EKYT 232350Z 16011KT 2000 RA SCT008 BKN015 09/08 Q1010
Loading
Personal Weather Stations






























Interactive Weather Map New forecast layout! Learn more

10-Day Weather Forecast

Advertisements
Track Severe Weather on mobile